createdAt,value
2018-09-05T00:02:35.671Z,99822.89
2018-09-05T00:05:40.575Z,99825.53
2018-09-05T00:08:45.549Z,99827.34
2018-09-05T00:11:50.422Z,99823.59
2018-09-05T00:15:21.975Z,99824.78
2018-09-05T00:18:26.861Z,99828.75
2018-09-05T00:21:31.878Z,99831.91
2018-09-05T00:24:36.884Z,99836.53
2018-09-05T00:27:41.907Z,99834.30
2018-09-05T00:30:47.033Z,99839.75
2018-09-05T00:33:51.954Z,99831.75
2018-09-05T00:36:56.861Z,99825.45
2018-09-05T00:40:01.728Z,99825.63
2018-09-05T00:43:07.090Z,99831.79
2018-09-05T00:46:12.000Z,99828.39
2018-09-05T00:49:17.035Z,99831.53
2018-09-05T00:52:21.952Z,99827.47
2018-09-05T00:55:27.021Z,99828.34
2018-09-05T00:58:32.042Z,99823.23
2018-09-05T01:01:37.061Z,99826.53
2018-09-05T01:04:41.996Z,99829.56
2018-09-05T01:07:46.926Z,99829.05
2018-09-05T01:10:51.849Z,99821.02
2018-09-05T01:13:56.708Z,99824.83
2018-09-05T01:17:01.641Z,99836.41
2018-09-05T01:20:06.495Z,99835.22
2018-09-05T01:23:11.367Z,99834.59
2018-09-05T01:26:16.312Z,99833.13
2018-09-05T01:29:21.198Z,99835.10
2018-09-05T01:32:26.091Z,99820.07
2018-09-05T01:35:30.925Z,99821.05
2018-09-05T01:38:35.733Z,99818.36
2018-09-05T01:41:40.679Z,99816.80
2018-09-05T01:44:45.478Z,99821.71
2018-09-05T01:47:50.310Z,99817.23
2018-09-05T01:50:55.406Z,99813.53
2018-09-05T01:54:00.337Z,99813.45
2018-09-05T01:57:05.280Z,99819.39
2018-09-05T02:00:15.140Z,99820.80
2018-09-05T02:03:20.004Z,99817.04
2018-09-05T02:06:24.971Z,99821.02
2018-09-05T02:09:30.007Z,99825.43
2018-09-05T02:12:34.937Z,99829.86
2018-09-05T02:15:39.813Z,99831.31
2018-09-05T02:18:44.614Z,99829.44
2018-09-05T02:21:49.474Z,99823.08
2018-09-05T02:24:54.351Z,99820.43
2018-09-05T02:27:59.336Z,99819.81
2018-09-05T02:31:04.146Z,99817.37
2018-09-05T02:34:09.001Z,99819.78
2018-09-05T02:37:13.815Z,99821.10
2018-09-05T02:40:18.761Z,99822.20
2018-09-05T02:43:28.594Z,99827.38
2018-09-05T02:46:33.588Z,99818.55
2018-09-05T02:49:38.382Z,99818.55
2018-09-05T02:52:43.478Z,99817.97
2018-09-05T02:55:53.511Z,99819.33
2018-09-05T02:58:58.378Z,99821.13
2018-09-05T03:02:03.312Z,99827.09
2018-09-05T03:05:08.269Z,99829.30
2018-09-05T03:08:13.458Z,99825.69
2018-09-05T03:11:18.303Z,99822.15
2018-09-05T03:14:23.219Z,99824.59
2018-09-05T03:17:28.085Z,99824.41
2018-09-05T03:20:32.957Z,99820.16
2018-09-05T03:23:37.824Z,99825.09
2018-09-05T03:26:42.641Z,99826.77
2018-09-05T03:29:47.542Z,99820.39
2018-09-05T03:32:52.452Z,99823.05
2018-09-05T03:35:57.351Z,99825.88
2018-09-05T03:39:02.223Z,99828.16
2018-09-05T03:42:07.293Z,99827.46
2018-09-05T03:45:12.102Z,99834.71
2018-09-05T03:48:17.142Z,99833.89
2018-09-05T03:51:22.062Z,99834.71
2018-09-05T03:54:26.921Z,99833.36
2018-09-05T03:57:31.805Z,99837.89
2018-09-05T04:00:37.275Z,99845.48
2018-09-05T04:03:42.213Z,99839.28
2018-09-05T04:06:47.088Z,99838.30
2018-09-05T04:09:51.987Z,99843.41
2018-09-05T04:12:56.791Z,99842.53
2018-09-05T04:16:01.674Z,99847.19
2018-09-05T04:19:06.518Z,99849.48
2018-09-05T04:22:11.442Z,99846.44
2018-09-05T04:25:16.258Z,99846.38
2018-09-05T04:28:21.141Z,99852.77
2018-09-05T04:31:26.084Z,99847.59
2018-09-05T04:34:30.937Z,99848.48
2018-09-05T04:37:35.912Z,99845.61
2018-09-05T04:40:40.789Z,99852.42
2018-09-05T04:43:45.614Z,99847.31
2018-09-05T04:46:50.576Z,99846.31
2018-09-05T04:49:55.434Z,99848.26
2018-09-05T04:53:00.303Z,99852.80
2018-09-05T04:56:05.526Z,99861.12
2018-09-05T04:59:10.334Z,99862.47
2018-09-05T05:02:15.526Z,99859.98
2018-09-05T05:05:20.461Z,99864.30
2018-09-05T05:08:25.416Z,99868.48
2018-09-05T05:11:30.461Z,99872.82
2018-09-05T05:14:35.342Z,99868.11
2018-09-05T05:17:40.310Z,99875.48
2018-09-05T05:20:45.171Z,99881.25
2018-09-05T05:23:50.021Z,99880.03
2018-09-05T05:26:54.871Z,99883.62
2018-09-05T05:29:59.768Z,99883.62
2018-09-05T05:33:04.635Z,99878.23
2018-09-05T05:36:09.528Z,99876.23
2018-09-05T05:39:14.360Z,99885.80
2018-09-05T05:42:19.202Z,99885.66
2018-09-05T05:45:24.060Z,99888.34
2018-09-05T05:48:29.054Z,99881.55
2018-09-05T05:51:33.874Z,99892.27
2018-09-05T05:54:38.747Z,99885.95
2018-09-05T05:57:43.697Z,99892.11
2018-09-05T06:00:48.715Z,99894.87
2018-09-05T06:03:55.020Z,99901.38
2018-09-05T06:06:59.836Z,99905.56
2018-09-05T06:10:04.759Z,99905.56
2018-09-05T06:13:09.577Z,99897.75
2018-09-05T06:16:14.412Z,99901.05
2018-09-05T06:19:19.255Z,99903.08
2018-09-05T06:22:24.239Z,99905.55
2018-09-05T06:25:29.046Z,99905.02
2018-09-05T06:28:33.899Z,99897.08
2018-09-05T06:31:38.839Z,99906.97
2018-09-05T06:34:43.733Z,99899.98
2018-09-05T06:37:48.640Z,99899.19
2018-09-05T06:40:53.483Z,99895.57
2018-09-05T06:43:58.470Z,99896.00
2018-09-05T06:47:03.271Z,99903.02
2018-09-05T06:50:08.523Z,99907.10
2018-09-05T06:53:13.371Z,99903.35
2018-09-05T06:56:18.290Z,99904.52
2018-09-05T06:59:23.158Z,99904.43
2018-09-05T07:02:28.796Z,99905.26
2018-09-05T07:05:33.794Z,99906.39
2018-09-05T07:08:38.763Z,99904.50
2018-09-05T07:11:44.578Z,99906.05
2018-09-05T07:14:49.473Z,99904.98
2018-09-05T07:17:54.391Z,99913.79
2018-09-05T07:21:05.681Z,99909.05
2018-09-05T07:24:04.304Z,99906.09
2018-09-05T07:27:09.226Z,99905.91
2018-09-05T07:30:16.170Z,99905.11
2018-09-05T07:33:21.121Z,99902.91
2018-09-05T07:36:26.237Z,99906.32
2018-09-05T07:39:31.102Z,99909.42
2018-09-05T07:42:35.980Z,99910.02
2018-09-05T07:45:40.931Z,99910.78
2018-09-05T07:48:45.894Z,99912.03
2018-09-05T07:51:50.760Z,99907.88
2018-09-05T07:54:55.593Z,99912.96
2018-09-05T07:58:00.492Z,99911.36
2018-09-05T08:01:05.593Z,99908.34
2018-09-05T08:04:11.061Z,99909.47
2018-09-05T08:07:15.916Z,99913.19
2018-09-05T08:10:20.806Z,99909.91
2018-09-05T08:13:25.696Z,99914.56
2018-09-05T08:16:30.480Z,99910.22
2018-09-05T08:19:35.337Z,99899.77
2018-09-05T08:22:40.232Z,99898.31
2018-09-05T08:25:45.291Z,99895.41
2018-09-05T08:28:50.184Z,99896.30
2018-09-05T08:31:55.287Z,99898.45
2018-09-05T08:35:00.130Z,99895.99
2018-09-05T08:38:04.944Z,99892.42
2018-09-05T08:41:10.914Z,99898.64
2018-09-05T08:44:15.741Z,99895.13
2018-09-05T08:47:20.619Z,99895.07
2018-09-05T08:50:25.352Z,99888.64
2018-09-05T08:53:30.322Z,99892.20
2018-09-05T08:56:35.358Z,99886.59
2018-09-05T08:59:40.169Z,99886.99
2018-09-05T09:02:45.085Z,99883.32
2018-09-05T09:05:50.204Z,99882.53
2018-09-05T09:08:55.086Z,99884.80
2018-09-05T09:11:59.998Z,99880.41
2018-09-05T09:15:05.008Z,99879.72
2018-09-05T09:18:09.948Z,99872.83
2018-09-05T09:21:14.918Z,99869.66
2018-09-05T09:24:19.809Z,99869.00
2018-09-05T09:27:24.817Z,99866.75
2018-09-05T09:30:29.646Z,99857.20
2018-09-05T09:33:34.510Z,99857.41
2018-09-05T09:36:39.477Z,99850.34
2018-09-05T09:39:44.371Z,99845.22
2018-09-05T09:42:49.309Z,99839.88
2018-09-05T09:45:54.311Z,99838.69
2018-09-05T09:48:59.240Z,99842.33
2018-09-05T09:52:09.374Z,99832.34
2018-09-05T09:55:14.482Z,99828.11
2018-09-05T09:58:20.306Z,99824.12
2018-09-05T10:01:30.602Z,99824.63
2018-09-05T10:04:40.666Z,99818.66
2018-09-05T10:07:50.644Z,99815.84
2018-09-05T10:11:02.497Z,99807.28
2018-09-05T10:14:16.221Z,99805.90
2018-09-05T10:17:33.490Z,99800.46
2018-09-05T10:20:38.310Z,99801.33
2018-09-05T10:23:43.262Z,99796.38
2018-09-05T10:26:48.314Z,99798.25
2018-09-05T10:29:53.782Z,99799.22
2018-09-05T10:32:58.676Z,99785.52
2018-09-05T10:36:03.592Z,99787.01
2018-09-05T10:39:10.712Z,99781.48
2018-09-05T10:42:15.606Z,99779.10
2018-09-05T10:45:56.675Z,99767.95
2018-09-05T10:49:01.586Z,99771.52
2018-09-05T10:52:07.675Z,99768.67
2018-09-05T10:55:12.606Z,99763.64
2018-09-05T10:58:17.635Z,99762.14
2018-09-05T11:01:22.367Z,99759.13
2018-09-05T11:04:27.526Z,99764.67
2018-09-05T11:07:32.310Z,99751.70
2018-09-05T11:10:37.249Z,99750.50
2018-09-05T11:13:42.109Z,99751.06
2018-09-05T11:16:46.927Z,99750.47
2018-09-05T11:19:51.719Z,99748.41
2018-09-05T11:22:56.640Z,99744.08
2018-09-05T11:26:01.411Z,99745.86
2018-09-05T11:29:06.446Z,99739.00
2018-09-05T11:32:11.185Z,99740.05
2018-09-05T11:35:16.022Z,99727.27
2018-09-05T11:38:21.008Z,99733.55
2018-09-05T11:41:26.066Z,99732.88
2018-09-05T11:44:30.957Z,99732.39
2018-09-05T11:47:35.949Z,99733.11
2018-09-05T11:50:40.850Z,99719.26
2018-09-05T11:53:45.880Z,99722.70
2018-09-05T11:56:50.837Z,99717.92
2018-09-05T11:59:55.699Z,99719.65
2018-09-05T12:03:00.762Z,99724.38
2018-09-05T12:06:05.958Z,99723.59
2018-09-05T12:09:12.617Z,99721.34
2018-09-05T12:12:17.874Z,99724.13
2018-09-05T12:15:22.733Z,99711.86
2018-09-05T12:18:27.696Z,99707.09
2018-09-05T12:21:32.683Z,99704.70
2018-09-05T12:24:37.648Z,99697.56
2018-09-05T12:27:42.540Z,99696.91
2018-09-05T12:30:47.383Z,99690.39
2018-09-05T12:33:52.218Z,99687.88
2018-09-05T12:36:57.159Z,99695.59
2018-09-05T12:40:02.072Z,99689.53
2018-09-05T12:43:07.079Z,99685.84
2018-09-05T12:46:12.060Z,99683.44
2018-09-05T12:49:16.928Z,99681.20
2018-09-05T12:52:21.755Z,99681.20
2018-09-05T12:55:26.663Z,99677.36
2018-09-05T12:58:31.531Z,99674.36
2018-09-05T13:01:36.459Z,99672.86
2018-09-05T13:04:41.464Z,99668.69
2018-09-05T13:07:46.361Z,99668.00
2018-09-05T13:10:51.337Z,99664.64
2018-09-05T13:13:56.214Z,99659.37
2018-09-05T13:17:01.062Z,99657.73
2018-09-05T13:20:06.203Z,99649.61
2018-09-05T13:23:11.135Z,99647.41
2018-09-05T13:26:16.068Z,99644.41
2018-09-05T13:29:20.983Z,99639.77
2018-09-05T13:32:25.842Z,99631.80
2018-09-05T13:35:31.058Z,99634.22
2018-09-05T13:38:36.011Z,99634.69
2018-09-05T13:41:41.403Z,99633.52
2018-09-05T13:44:46.279Z,99624.25
2018-09-05T13:47:51.212Z,99629.80
2018-09-05T13:50:56.091Z,99625.46
2018-09-05T13:54:01.062Z,99624.69
2018-09-05T13:57:05.864Z,99616.91
2018-09-05T14:00:15.309Z,99613.33
2018-09-05T14:03:20.349Z,99612.11
2018-09-05T14:06:25.219Z,99606.55
2018-09-05T14:09:30.119Z,99604.13
2018-09-05T14:12:34.979Z,99598.91
2018-09-05T14:15:39.908Z,99598.43
2018-09-05T14:18:44.836Z,99599.50
2018-09-05T14:21:49.783Z,99600.53
2018-09-05T14:24:55.585Z,99591.51
2018-09-05T14:28:03.358Z,99597.52
2018-09-05T14:31:08.209Z,99594.72
2018-09-05T14:34:13.196Z,99590.21
2018-09-05T14:37:18.045Z,99584.32
2018-09-05T14:40:23.035Z,99589.77
2018-09-05T14:43:27.905Z,99585.02
2018-09-05T14:46:32.961Z,99585.70
2018-09-05T14:49:37.901Z,99589.53
2018-09-05T14:52:42.750Z,99580.44
2018-09-05T14:55:47.637Z,99583.66
2018-09-05T14:58:52.675Z,99577.25
2018-09-05T15:01:57.535Z,99577.25
2018-09-05T15:05:02.346Z,99570.19
2018-09-05T15:08:07.571Z,99565.94
2018-09-05T15:11:12.441Z,99577.72
2018-09-05T15:14:17.398Z,99570.99
2018-09-05T15:17:22.411Z,99566.99
2018-09-05T15:20:27.376Z,99562.58
2018-09-05T15:23:32.289Z,99566.41
2018-09-05T15:26:37.339Z,99564.05
2018-09-05T15:29:42.354Z,99566.36
2018-09-05T15:32:47.282Z,99553.80
2018-09-05T15:35:52.471Z,99558.24
2018-09-05T15:38:57.474Z,99557.73
2018-09-05T15:42:02.339Z,99554.88
2018-09-05T15:45:07.363Z,99554.84
2018-09-05T15:48:12.380Z,99548.12
2018-09-05T15:51:17.311Z,99548.06
2018-09-05T15:54:22.365Z,99549.89
2018-09-05T15:57:27.665Z,99544.95
2018-09-05T16:00:32.513Z,99542.34
2018-09-05T16:03:37.417Z,99539.67
2018-09-05T16:06:42.198Z,99543.64
2018-09-05T16:09:47.090Z,99538.03
2018-09-05T16:12:51.941Z,99541.97
2018-09-05T16:15:56.850Z,99543.28
2018-09-05T16:19:01.892Z,99542.75
2018-09-05T16:22:07.241Z,99540.88
2018-09-05T16:25:12.252Z,99544.34
2018-09-05T16:28:17.098Z,99544.80
2018-09-05T16:31:22.017Z,99542.75
2018-09-05T16:34:26.890Z,99542.60
2018-09-05T16:37:31.788Z,99543.19
2018-09-05T16:40:36.765Z,99540.36
2018-09-05T16:43:41.648Z,99539.16
2018-09-05T16:46:46.594Z,99536.67
2018-09-05T16:49:52.195Z,99540.86
2018-09-05T16:52:57.050Z,99547.71
2018-09-05T16:56:01.969Z,99541.64
2018-09-05T16:59:06.941Z,99539.14
2018-09-05T17:02:11.785Z,99540.08
2018-09-05T17:05:16.725Z,99541.53
2018-09-05T17:08:21.714Z,99533.90
2018-09-05T17:11:26.513Z,99536.05
2018-09-05T17:14:31.405Z,99535.54
2018-09-05T17:17:38.994Z,99534.52
2018-09-05T17:20:44.071Z,99537.05
2018-09-05T17:23:48.994Z,99541.42
2018-09-05T17:26:54.050Z,99540.38
2018-09-05T17:30:08.656Z,99539.58
2018-09-05T17:33:13.610Z,99536.61
2018-09-05T17:36:18.571Z,99539.23
2018-09-05T17:39:39.454Z,99538.54
2018-09-05T17:42:44.314Z,99537.97
2018-09-05T17:45:49.608Z,99535.13
2018-09-05T17:48:54.565Z,99537.49
2018-09-05T17:51:59.528Z,99533.33
2018-09-05T17:55:04.580Z,99533.03
2018-09-05T17:58:09.481Z,99544.52
2018-09-05T18:01:17.592Z,99542.05
2018-09-05T18:04:22.511Z,99544.73
2018-09-05T18:07:27.390Z,99554.00
2018-09-05T18:10:32.528Z,99547.34
2018-09-05T18:13:37.394Z,99555.48
2018-09-05T18:16:42.266Z,99556.45
2018-09-05T18:20:00.608Z,99551.29
2018-09-05T18:23:08.117Z,99557.96
2018-09-05T18:26:20.331Z,99556.48
2018-09-05T18:29:29.755Z,99563.95
2018-09-05T18:32:34.718Z,99560.62
2018-09-05T18:35:39.572Z,99569.73
2018-09-05T18:38:44.415Z,99572.50
2018-09-05T18:41:49.446Z,99566.81
2018-09-05T18:44:54.256Z,99571.50
2018-09-05T18:48:00.133Z,99574.02
2018-09-05T18:51:05.393Z,99574.09
2018-09-05T18:54:10.437Z,99573.87
2018-09-05T18:57:15.392Z,99571.20
2018-09-05T19:00:20.466Z,99582.72
2018-09-05T19:03:25.474Z,99571.77
2018-09-05T19:06:30.728Z,99576.72
2018-09-05T19:09:35.692Z,99573.74
2018-09-05T19:12:40.608Z,99566.10
2018-09-05T19:15:45.593Z,99564.48
2018-09-05T19:18:50.596Z,99566.37
2018-09-05T19:21:55.680Z,99569.12
2018-09-05T19:25:00.607Z,99570.78
2018-09-05T19:28:05.770Z,99570.48
2018-09-05T19:31:11.756Z,99564.77
2018-09-05T19:34:17.000Z,99563.67
2018-09-05T19:37:22.424Z,99564.22
2018-09-05T19:40:27.777Z,99563.66
2018-09-05T19:43:32.957Z,99567.22
2018-09-05T19:46:39.096Z,99562.00
2018-09-05T19:49:44.663Z,99559.27
2018-09-05T19:52:49.933Z,99561.44
2018-09-05T19:55:55.021Z,99565.50
2018-09-05T19:59:00.120Z,99566.27
2018-09-05T20:02:05.295Z,99569.25
2018-09-05T20:05:10.651Z,99572.53
2018-09-05T20:08:15.751Z,99565.97
2018-09-05T20:11:20.985Z,99571.39
2018-09-05T20:14:26.099Z,99570.25
2018-09-05T20:17:31.079Z,99569.96
2018-09-05T20:20:36.582Z,99575.70
2018-09-05T20:23:41.597Z,99569.16
2018-09-05T20:26:46.575Z,99577.00
2018-09-05T20:29:51.574Z,99574.77
2018-09-05T20:32:57.602Z,99574.48
2018-09-05T20:36:02.622Z,99568.97
2018-09-05T20:39:11.023Z,99564.39
2018-09-05T20:42:16.080Z,99575.47
2018-09-05T20:45:21.055Z,99576.19
2018-09-05T20:48:26.111Z,99579.98
2018-09-05T20:51:31.396Z,99577.02
2018-09-05T20:54:36.495Z,99580.44
2018-09-05T20:57:41.537Z,99577.91
2018-09-05T21:00:46.856Z,99577.30
2018-09-05T21:03:52.109Z,99576.47
2018-09-05T21:06:58.048Z,99577.47
2018-09-05T21:10:03.262Z,99581.37
2018-09-05T21:13:08.375Z,99589.22
2018-09-05T21:16:13.626Z,99585.63
2018-09-05T21:19:18.667Z,99596.81
2018-09-05T21:22:23.720Z,99617.95
2018-09-05T21:25:30.004Z,99604.09
2018-09-05T21:28:34.942Z,99614.47
2018-09-05T21:31:40.225Z,99606.23
2018-09-05T21:34:47.061Z,99600.28
2018-09-05T21:37:52.313Z,99588.89
2018-09-05T21:40:57.259Z,99584.77
2018-09-05T21:44:02.774Z,99585.45
2018-09-05T21:47:07.677Z,99581.20
2018-09-05T21:50:12.602Z,99590.60
2018-09-05T21:53:17.465Z,99589.37
2018-09-05T21:56:22.341Z,99588.42
2018-09-05T21:59:27.256Z,99584.02
2018-09-05T22:02:32.162Z,99580.08
2018-09-05T22:05:37.206Z,99580.18
2018-09-05T22:08:42.083Z,99570.79
2018-09-05T22:11:47.105Z,99580.57
2018-09-05T22:14:52.046Z,99585.86
2018-09-05T22:17:56.966Z,99582.11
2018-09-05T22:21:01.871Z,99578.94
2018-09-05T22:24:06.961Z,99585.85
2018-09-05T22:27:11.874Z,99584.30
2018-09-05T22:30:16.897Z,99582.94
2018-09-05T22:33:21.764Z,99582.02
2018-09-05T22:36:26.680Z,99581.40
2018-09-05T22:39:31.761Z,99582.38
2018-09-05T22:42:38.374Z,99581.40
2018-09-05T22:45:59.802Z,99584.70
2018-09-05T22:53:34.660Z,99594.24
2018-09-05T22:59:05.983Z,99589.37
2018-09-05T23:04:29.760Z,99580.53
2018-09-05T23:07:50.215Z,99587.20
2018-09-05T23:12:15.644Z,99580.88
2018-09-05T23:15:37.258Z,99581.96
2018-09-05T23:19:02.750Z,99583.13
2018-09-05T23:22:07.655Z,99580.37
2018-09-05T23:25:12.459Z,99575.66
2018-09-05T23:28:17.325Z,99579.62
2018-09-05T23:31:22.684Z,99576.91
2018-09-05T23:34:27.537Z,99581.11
2018-09-05T23:37:32.540Z,99578.36
2018-09-05T23:40:37.415Z,99571.80
2018-09-05T23:43:42.353Z,99563.84
2018-09-05T23:46:47.203Z,99568.59
2018-09-05T23:49:52.066Z,99568.68
2018-09-05T23:52:56.918Z,99563.92
2018-09-05T23:56:01.896Z,99568.18
2018-09-05T23:59:07.820Z,99566.37
